Eviapetrol I — SY5401 — position and weather

sailwx.info

Track history (hours):
 
Tides and Currents Weather Stations Pressure Air Temp Water Temp Dewpoint Dewpoint Depression Visibility Wind Speed Wind Dir Waves Ship Positions

Eviapetrol I

Last reported at 2015-Feb-27 10:26 UTC. Time now 2015-Feb-28 06:51 UTC.
Position N 37°00' E 025°55'.

Length 75 m; draft 4.5 m.

Type: Tanker. MMSI: 240285000.

Date/timePositionNaut miles runAvg speedWind from/ knotsBaromVisibWave heightAir tempDewpointWater temp
2015-Feb-27 10:26N 37°00' E 025°55'7 8.0
2015-Feb-27 09:31N 37°04' E 025°47'8 8.3
2015-Feb-27 08:33N 37°10' E 025°40'9 8.7
2015-Feb-27 07:33N 37°14' E 025°30'10 9.5
2015-Feb-27 06:33N 37°15' E 025°18'9 8.6
2015-Feb-27 05:33N 37°16' E 025°08'8 7.9
2015-Feb-27 04:33N 37°18' E 024°58'8 8.0
2015-Feb-27 03:33N 37°22' E 024°49'48 8.0
2015-Feb-26 21:33N 37°37' E 023°51'8 8.4
2015-Feb-26 20:33N 37°41' E 023°42'9 9.2
2015-Feb-26 19:33N 37°49' E 023°36'9 9.5
2015-Feb-26 18:33N 37°50' E 023°24'10 9.6
2015-Feb-26 17:28N 37°53' E 023°11'5 1.1
2015-Feb-26 12:21N 37°55' E 023°05'0 0.0
2015-Feb-25 20:08N 37°55' E 023°06'3 5.4
2015-Feb-25 19:33N 37°54' E 023°10'10 9.5
2015-Feb-25 18:32N 37°52' E 023°22'9 8.9
2015-Feb-25 17:33N 37°54' E 023°32'1 1.4
2015-Feb-25 16:33N 37°56' E 023°33'0 0.0
2015-Feb-25 15:33N 37°56' E 023°33'0 0.0
2015-Feb-25 14:33N 37°56' E 023°33'1 1.4
2015-Feb-25 13:33N 37°55' E 023°35'9 9.1
2015-Feb-25 12:33N 37°47' E 023°41'1010.1
2015-Feb-25 11:33N 37°38' E 023°46'53 1.3
2015-Feb-23 19:19N 36°52' E 023°12'17 9.2
2015-Feb-23 17:31N 37°09' E 023°14'8 8.1
2015-Feb-23 16:33N 37°14' E 023°21'8 8.1
2015-Feb-23 15:32N 37°18' E 023°30'10 7.2
2015-Feb-23 14:09N 37°26' E 023°36'5 9.0
2015-Feb-23 13:33N 37°32' E 023°36'8 8.0
2015-Feb-23 12:33N 37°40' E 023°36'8 8.4
2015-Feb-23 11:33N 37°48' E 023°36'8 8.5
2015-Feb-23 10:33N 37°57' E 023°36'6 6.0
2015-Feb-23 09:33N 38°01' E 023°32'0 0.1
2015-Feb-23 08:33N 38°01' E 023°32'0 0.0
2015-Feb-23 07:27N 38°01' E 023°32'0 0.0
2015-Feb-23 06:33N 38°01' E 023°32'0 0.0
2015-Feb-23 05:33N 38°01' E 023°32'0 0.0
2015-Feb-23 04:27N 38°01' E 023°32'0 0.0
2015-Feb-23 03:27N 38°01' E 023°32'0 0.0
2015-Feb-23 02:33N 38°02' E 023°32'0 0.0
2015-Feb-23 01:27N 38°02' E 023°32'0 0.0
2015-Feb-23 00:27N 38°02' E 023°32'0 0.0
2015-Feb-22 23:33N 38°02' E 023°32'0 0.0
2015-Feb-22 22:33N 38°02' E 023°32'0 0.0
2015-Feb-22 21:33N 38°02' E 023°32'0 0.3
2015-Feb-22 20:33N 38°01' E 023°32'3 2.9
2015-Feb-22 19:33N 38°02' E 023°36'0 0.1
2015-Feb-22 18:34N 38°02' E 023°36'0 0.0
2015-Feb-22 17:19N 38°02' E 023°36'0 0.0
2015-Feb-22 16:34N 38°02' E 023°36'0 0.0
2015-Feb-22 15:34N 38°02' E 023°36'0 0.0
2015-Feb-22 14:33N 38°02' E 023°36'0 0.0
2015-Feb-22 13:33N 38°02' E 023°36'0 0.0
2015-Feb-22 12:34N 38°02' E 023°36'0 0.0
2015-Feb-22 11:33N 38°02' E 023°36'0 0.0
2015-Feb-22 10:33N 38°02' E 023°36'1 1.3
2015-Feb-22 09:34N 38°01' E 023°34'2 2.5
2015-Feb-22 08:33N 37°59' E 023°33'9 8.9
2015-Feb-22 07:34N 37°51' E 023°39'1010.1
2015-Feb-22 06:33N 37°42' E 023°44'10 9.8
2015-Feb-22 05:31N 37°38' E 023°56'170 9.4
2015-Feb-21 11:23N 40°17' E 025°14'  
Track history (hours):
 
Tides and Currents Weather Stations Pressure Air Temp Water Temp Dewpoint Dewpoint Depression Visibility Wind Speed Wind Dir Waves Ship Positions

Eviapetrol I

Last reported at 2015-Feb-27 10:26 UTC. Time now 2015-Feb-28 06:51 UTC.
Position N 37°00' E 025°55'.

Length 75 m; draft 4.5 m.

Type: Tanker. MMSI: 240285000.

Date/timePositionNaut miles runAvg speedWind from/ knotsBaromVisibWave heightAir tempDewpointWater temp
2015-Feb-27 10:26N 37°00' E 025°55'7 8.0
2015-Feb-27 09:31N 37°04' E 025°47'8 8.3
2015-Feb-27 08:33N 37°10' E 025°40'9 8.7
2015-Feb-27 07:33N 37°14' E 025°30'10 9.5
2015-Feb-27 06:33N 37°15' E 025°18'9 8.6
2015-Feb-27 05:33N 37°16' E 025°08'8 7.9
2015-Feb-27 04:33N 37°18' E 024°58'8 8.0
2015-Feb-27 03:33N 37°22' E 024°49'48 8.0
2015-Feb-26 21:33N 37°37' E 023°51'8 8.4
2015-Feb-26 20:33N 37°41' E 023°42'9 9.2
2015-Feb-26 19:33N 37°49' E 023°36'9 9.5
2015-Feb-26 18:33N 37°50' E 023°24'10 9.6
2015-Feb-26 17:28N 37°53' E 023°11'5 1.1
2015-Feb-26 12:21N 37°55' E 023°05'0 0.0
2015-Feb-25 20:08N 37°55' E 023°06'3 5.4
2015-Feb-25 19:33N 37°54' E 023°10'10 9.5
2015-Feb-25 18:32N 37°52' E 023°22'9 8.9
2015-Feb-25 17:33N 37°54' E 023°32'1 1.4
2015-Feb-25 16:33N 37°56' E 023°33'0 0.0
2015-Feb-25 15:33N 37°56' E 023°33'0 0.0
2015-Feb-25 14:33N 37°56' E 023°33'1 1.4
2015-Feb-25 13:33N 37°55' E 023°35'9 9.1
2015-Feb-25 12:33N 37°47' E 023°41'1010.1
2015-Feb-25 11:33N 37°38' E 023°46'53 1.3
2015-Feb-23 19:19N 36°52' E 023°12'17 9.2
2015-Feb-23 17:31N 37°09' E 023°14'8 8.1
2015-Feb-23 16:33N 37°14' E 023°21'8 8.1
2015-Feb-23 15:32N 37°18' E 023°30'10 7.2
2015-Feb-23 14:09N 37°26' E 023°36'5 9.0
2015-Feb-23 13:33N 37°32' E 023°36'8 8.0
2015-Feb-23 12:33N 37°40' E 023°36'8 8.4
2015-Feb-23 11:33N 37°48' E 023°36'8 8.5
2015-Feb-23 10:33N 37°57' E 023°36'6 6.0
2015-Feb-23 09:33N 38°01' E 023°32'0 0.1
2015-Feb-23 08:33N 38°01' E 023°32'0 0.0
2015-Feb-23 07:27N 38°01' E 023°32'0 0.0
2015-Feb-23 06:33N 38°01' E 023°32'0 0.0
2015-Feb-23 05:33N 38°01' E 023°32'0 0.0
2015-Feb-23 04:27N 38°01' E 023°32'0 0.0
2015-Feb-23 03:27N 38°01' E 023°32'0 0.0
2015-Feb-23 02:33N 38°02' E 023°32'0 0.0
2015-Feb-23 01:27N 38°02' E 023°32'0 0.0
2015-Feb-23 00:27N 38°02' E 023°32'0 0.0
2015-Feb-22 23:33N 38°02' E 023°32'0 0.0
2015-Feb-22 22:33N 38°02' E 023°32'0 0.0
2015-Feb-22 21:33N 38°02' E 023°32'0 0.3
2015-Feb-22 20:33N 38°01' E 023°32'3 2.9
2015-Feb-22 19:33N 38°02' E 023°36'0 0.1
2015-Feb-22 18:34N 38°02' E 023°36'0 0.0
2015-Feb-22 17:19N 38°02' E 023°36'0 0.0
2015-Feb-22 16:34N 38°02' E 023°36'0 0.0
2015-Feb-22 15:34N 38°02' E 023°36'0 0.0
2015-Feb-22 14:33N 38°02' E 023°36'0 0.0
2015-Feb-22 13:33N 38°02' E 023°36'0 0.0
2015-Feb-22 12:34N 38°02' E 023°36'0 0.0
2015-Feb-22 11:33N 38°02' E 023°36'0 0.0
2015-Feb-22 10:33N 38°02' E 023°36'1 1.3
2015-Feb-22 09:34N 38°01' E 023°34'2 2.5
2015-Feb-22 08:33N 37°59' E 023°33'9 8.9
2015-Feb-22 07:34N 37°51' E 023°39'1010.1
2015-Feb-22 06:33N 37°42' E 023°44'10 9.8
2015-Feb-22 05:31N 37°38' E 023°56'170 9.4
2015-Feb-21 11:23N 40°17' E 025°14'  

Dump ship's entire track history